sensor_id;sensor_type;location;lat;lon;timestamp;temperature;humidity
21662;DHT22;10992;48.170;8.596;2023-11-22T00:01:06;4.70;99.90
21662;DHT22;10992;48.170;8.596;2023-11-22T00:03:34;4.70;99.90
21662;DHT22;10992;48.170;8.596;2023-11-22T00:06:01;4.70;99.90
21662;DHT22;10992;48.170;8.596;2023-11-22T00:08:28;4.80;99.90
21662;DHT22;10992;48.170;8.596;2023-11-22T00:10:56;4.80;99.90
21662;DHT22;10992;48.170;8.596;2023-11-22T00:13:23;4.80;99.90
21662;DHT22;10992;48.170;8.596;2023-11-22T00:15:50;4.90;99.90
21662;DHT22;10992;48.170;8.596;2023-11-22T00:18:17;4.80;99.90
21662;DHT22;10992;48.170;8.596;2023-11-22T00:20:44;4.70;99.90
21662;DHT22;10992;48.170;8.596;2023-11-22T00:23:14;4.60;99.90
21662;DHT22;10992;48.170;8.596;2023-11-22T00:25:41;4.60;99.90
21662;DHT22;10992;48.170;8.596;2023-11-22T00:28:08;4.70;99.90
21662;DHT22;10992;48.170;8.596;2023-11-22T00:30:36;4.60;99.90
21662;DHT22;10992;48.170;8.596;2023-11-22T00:33:03;4.60;99.90
21662;DHT22;10992;48.170;8.596;2023-11-22T00:35:31;4.60;99.90
21662;DHT22;10992;48.170;8.596;2023-11-22T00:37:58;4.60;99.90
21662;DHT22;10992;48.170;8.596;2023-11-22T00:40:25;4.60;99.90
21662;DHT22;10992;48.170;8.596;2023-11-22T00:42:52;4.60;99.90
21662;DHT22;10992;48.170;8.596;2023-11-22T00:45:19;4.70;99.90
21662;DHT22;10992;48.170;8.596;2023-11-22T00:47:47;4.60;99.90
21662;DHT22;10992;48.170;8.596;2023-11-22T00:50:14;4.50;99.90
21662;DHT22;10992;48.170;8.596;2023-11-22T00:52:47;4.50;99.90
21662;DHT22;10992;48.170;8.596;2023-11-22T00:55:15;4.60;99.90
21662;DHT22;10992;48.170;8.596;2023-11-22T00:57:42;4.60;99.90
21662;DHT22;10992;48.170;8.596;2023-11-22T01:00:10;4.70;99.90
21662;DHT22;10992;48.170;8.596;2023-11-22T01:02:38;4.60;99.90
21662;DHT22;10992;48.170;8.596;2023-11-22T01:05:09;4.50;99.90
21662;DHT22;10992;48.170;8.596;2023-11-22T01:07:39;4.50;99.90
21662;DHT22;10992;48.170;8.596;2023-11-22T01:10:07;4.50;99.90
21662;DHT22;10992;48.170;8.596;2023-11-22T01:12:34;4.40;99.90
21662;DHT22;10992;48.170;8.596;2023-11-22T01:15:02;4.40;99.90
21662;DHT22;10992;48.170;8.596;2023-11-22T01:17:29;4.40;99.90
21662;DHT22;10992;48.170;8.596;2023-11-22T01:20:01;4.40;99.90
21662;DHT22;10992;48.170;8.596;2023-11-22T01:22:29;4.40;99.90
21662;DHT22;10992;48.170;8.596;2023-11-22T01:24:55;4.40;99.90
21662;DHT22;10992;48.170;8.596;2023-11-22T01:27:22;4.40;99.90
21662;DHT22;10992;48.170;8.596;2023-11-22T01:29:50;4.40;99.90
21662;DHT22;10992;48.170;8.596;2023-11-22T01:32:17;4.40;99.90
21662;DHT22;10992;48.170;8.596;2023-11-22T01:34:45;4.50;99.90
21662;DHT22;10992;48.170;8.596;2023-11-22T01:37:12;4.40;99.90
21662;DHT22;10992;48.170;8.596;2023-11-22T01:39:41;4.50;99.90
21662;DHT22;10992;48.170;8.596;2023-11-22T01:42:08;4.50;99.90
21662;DHT22;10992;48.170;8.596;2023-11-22T01:44:36;4.50;99.90
21662;DHT22;10992;48.170;8.596;2023-11-22T01:47:07;4.50;99.90
21662;DHT22;10992;48.170;8.596;2023-11-22T01:49:36;4.50;99.90
21662;DHT22;10992;48.170;8.596;2023-11-22T01:52:04;4.50;99.90
21662;DHT22;10992;48.170;8.596;2023-11-22T01:54:32;4.50;99.90
21662;DHT22;10992;48.170;8.596;2023-11-22T01:56:59;4.50;99.90
21662;DHT22;10992;48.170;8.596;2023-11-22T01:59:27;4.50;99.90
21662;DHT22;10992;48.170;8.596;2023-11-22T02:01:56;4.50;99.90
21662;DHT22;10992;48.170;8.596;2023-11-22T02:04:23;4.40;99.90
21662;DHT22;10992;48.170;8.596;2023-11-22T02:06:51;4.40;99.90
21662;DHT22;10992;48.170;8.596;2023-11-22T02:09:18;4.50;99.90
21662;DHT22;10992;48.170;8.596;2023-11-22T02:11:46;4.50;99.90
21662;DHT22;10992;48.170;8.596;2023-11-22T02:14:15;4.50;99.90
21662;DHT22;10992;48.170;8.596;2023-11-22T02:16:42;4.50;99.90
21662;DHT22;10992;48.170;8.596;2023-11-22T02:19:15;4.50;99.90
21662;DHT22;10992;48.170;8.596;2023-11-22T02:21:44;4.50;99.90
21662;DHT22;10992;48.170;8.596;2023-11-22T02:24:11;4.50;99.90
21662;DHT22;10992;48.170;8.596;2023-11-22T02:26:43;4.50;99.90
21662;DHT22;10992;48.170;8.596;2023-11-22T02:29:10;4.60;99.90
21662;DHT22;10992;48.170;8.596;2023-11-22T02:31:40;4.70;99.90
21662;DHT22;10992;48.170;8.596;2023-11-22T02:34:07;4.70;99.90
21662;DHT22;10992;48.170;8.596;2023-11-22T02:36:34;4.70;99.90
21662;DHT22;10992;48.170;8.596;2023-11-22T02:39:01;4.70;99.90
21662;DHT22;10992;48.170;8.596;2023-11-22T02:41:28;4.70;99.90
21662;DHT22;10992;48.170;8.596;2023-11-22T02:43:59;4.70;99.90
21662;DHT22;10992;48.170;8.596;2023-11-22T02:46:26;4.70;99.90
21662;DHT22;10992;48.170;8.596;2023-11-22T02:48:53;4.70;99.90
21662;DHT22;10992;48.170;8.596;2023-11-22T02:51:20;4.60;99.90
21662;DHT22;10992;48.170;8.596;2023-11-22T02:53:49;4.30;99.90
21662;DHT22;10992;48.170;8.596;2023-11-22T02:56:16;4.10;99.90
21662;DHT22;10992;48.170;8.596;2023-11-22T02:58:43;3.90;99.90
21662;DHT22;10992;48.170;8.596;2023-11-22T03:01:11;3.80;99.90
21662;DHT22;10992;48.170;8.596;2023-11-22T03:03:38;3.80;99.90
21662;DHT22;10992;48.170;8.596;2023-11-22T03:06:06;3.80;99.90
21662;DHT22;10992;48.170;8.596;2023-11-22T03:08:33;3.70;99.90
21662;DHT22;10992;48.170;8.596;2023-11-22T03:11:18;3.70;99.90
21662;DHT22;10992;48.170;8.596;2023-11-22T03:13:47;3.70;99.90
21662;DHT22;10992;48.170;8.596;2023-11-22T03:16:15;3.70;99.90
21662;DHT22;10992;48.170;8.596;2023-11-22T03:18:43;3.70;99.90
21662;DHT22;10992;48.170;8.596;2023-11-22T03:21:09;3.60;99.90
21662;DHT22;10992;48.170;8.596;2023-11-22T03:23:37;3.60;99.90
21662;DHT22;10992;48.170;8.596;2023-11-22T03:26:04;3.50;99.90
21662;DHT22;10992;48.170;8.596;2023-11-22T03:28:31;3.30;99.90
21662;DHT22;10992;48.170;8.596;2023-11-22T03:30:58;3.30;99.90
21662;DHT22;10992;48.170;8.596;2023-11-22T03:33:25;3.20;99.90
21662;DHT22;10992;48.170;8.596;2023-11-22T03:35:53;3.20;99.90
21662;DHT22;10992;48.170;8.596;2023-11-22T03:38:19;3.20;99.90
21662;DHT22;10992;48.170;8.596;2023-11-22T03:40:47;3.10;99.90
21662;DHT22;10992;48.170;8.596;2023-11-22T03:43:15;3.00;99.90
21662;DHT22;10992;48.170;8.596;2023-11-22T03:45:42;2.90;99.90
21662;DHT22;10992;48.170;8.596;2023-11-22T03:48:09;2.80;99.90
21662;DHT22;10992;48.170;8.596;2023-11-22T03:50:36;2.80;99.90
21662;DHT22;10992;48.170;8.596;2023-11-22T03:53:03;2.80;99.90
21662;DHT22;10992;48.170;8.596;2023-11-22T03:55:30;2.70;99.90
21662;DHT22;10992;48.170;8.596;2023-11-22T03:57:57;2.70;99.90
21662;DHT22;10992;48.170;8.596;2023-11-22T04:00:24;2.70;99.90
21662;DHT22;10992;48.170;8.596;2023-11-22T04:02:51;2.80;99.90
21662;DHT22;10992;48.170;8.596;2023-11-22T04:05:18;2.70;99.90
21662;DHT22;10992;48.170;8.596;2023-11-22T04:07:46;2.70;99.90
21662;DHT22;10992;48.170;8.596;2023-11-22T04:10:13;2.70;99.90
21662;DHT22;10992;48.170;8.596;2023-11-22T04:12:40;2.70;99.90
21662;DHT22;10992;48.170;8.596;2023-11-22T04:15:07;2.60;99.90
21662;DHT22;10992;48.170;8.596;2023-11-22T04:17:37;2.60;99.90
21662;DHT22;10992;48.170;8.596;2023-11-22T04:20:06;2.50;99.90
21662;DHT22;10992;48.170;8.596;2023-11-22T04:22:37;2.40;99.90
21662;DHT22;10992;48.170;8.596;2023-11-22T04:25:04;2.40;99.90
21662;DHT22;10992;48.170;8.596;2023-11-22T04:27:33;2.40;99.90
21662;DHT22;10992;48.170;8.596;2023-11-22T04:30:00;2.40;99.90
21662;DHT22;10992;48.170;8.596;2023-11-22T04:32:27;2.30;99.90
21662;DHT22;10992;48.170;8.596;2023-11-22T04:34:54;2.30;99.90
21662;DHT22;10992;48.170;8.596;2023-11-22T04:37:21;2.30;99.90
21662;DHT22;10992;48.170;8.596;2023-11-22T04:39:51;2.20;99.90
21662;DHT22;10992;48.170;8.596;2023-11-22T04:42:19;2.30;99.90
21662;DHT22;10992;48.170;8.596;2023-11-22T04:44:48;2.30;99.90
21662;DHT22;10992;48.170;8.596;2023-11-22T04:47:15;2.20;99.90
21662;DHT22;10992;48.170;8.596;2023-11-22T04:49:42;1.90;99.90
21662;DHT22;10992;48.170;8.596;2023-11-22T04:52:10;1.70;99.90
21662;DHT22;10992;48.170;8.596;2023-11-22T04:54:37;1.50;99.90
21662;DHT22;10992;48.170;8.596;2023-11-22T04:57:04;1.40;99.90
21662;DHT22;10992;48.170;8.596;2023-11-22T04:59:31;1.30;99.90
21662;DHT22;10992;48.170;8.596;2023-11-22T05:01:58;1.30;99.90
21662;DHT22;10992;48.170;8.596;2023-11-22T05:04:25;1.20;99.90
21662;DHT22;10992;48.170;8.596;2023-11-22T05:06:53;1.10;99.90
21662;DHT22;10992;48.170;8.596;2023-11-22T05:09:20;1.10;99.90
21662;DHT22;10992;48.170;8.596;2023-11-22T05:11:47;1.10;99.90
21662;DHT22;10992;48.170;8.596;2023-11-22T05:14:14;1.10;99.90
21662;DHT22;10992;48.170;8.596;2023-11-22T05:16:41;1.10;99.90
21662;DHT22;10992;48.170;8.596;2023-11-22T05:19:08;1.10;99.90
21662;DHT22;10992;48.170;8.596;2023-11-22T05:21:35;1.10;99.90
21662;DHT22;10992;48.170;8.596;2023-11-22T05:24:02;1.00;99.90
21662;DHT22;10992;48.170;8.596;2023-11-22T05:26:29;1.00;99.90
21662;DHT22;10992;48.170;8.596;2023-11-22T05:28:56;1.10;99.90
21662;DHT22;10992;48.170;8.596;2023-11-22T05:31:23;1.00;99.90
21662;DHT22;10992;48.170;8.596;2023-11-22T05:33:50;1.00;99.90
21662;DHT22;10992;48.170;8.596;2023-11-22T05:36:17;1.00;99.90
21662;DHT22;10992;48.170;8.596;2023-11-22T05:38:44;1.00;99.90
21662;DHT22;10992;48.170;8.596;2023-11-22T05:41:11;1.00;99.90
21662;DHT22;10992;48.170;8.596;2023-11-22T05:43:38;1.00;99.90
21662;DHT22;10992;48.170;8.596;2023-11-22T05:46:06;1.00;99.90
21662;DHT22;10992;48.170;8.596;2023-11-22T05:48:34;0.90;99.90
21662;DHT22;10992;48.170;8.596;2023-11-22T05:51:01;0.90;99.90
21662;DHT22;10992;48.170;8.596;2023-11-22T05:53:28;0.90;99.90
21662;DHT22;10992;48.170;8.596;2023-11-22T05:55:55;0.90;99.90
21662;DHT22;10992;48.170;8.596;2023-11-22T05:58:22;0.80;99.90
21662;DHT22;10992;48.170;8.596;2023-11-22T06:00:49;0.80;99.90
21662;DHT22;10992;48.170;8.596;2023-11-22T06:03:16;0.70;99.90
21662;DHT22;10992;48.170;8.596;2023-11-22T06:05:43;0.70;99.90
21662;DHT22;10992;48.170;8.596;2023-11-22T06:08:09;0.70;99.90
21662;DHT22;10992;48.170;8.596;2023-11-22T06:10:37;0.70;99.90
21662;DHT22;10992;48.170;8.596;2023-11-22T06:13:08;0.70;99.90
21662;DHT22;10992;48.170;8.596;2023-11-22T06:15:35;0.70;99.90
21662;DHT22;10992;48.170;8.596;2023-11-22T06:18:03;0.70;99.90
21662;DHT22;10992;48.170;8.596;2023-11-22T06:20:30;0.70;99.90
21662;DHT22;10992;48.170;8.596;2023-11-22T06:22:57;0.60;99.90
21662;DHT22;10992;48.170;8.596;2023-11-22T06:25:25;0.60;99.90
21662;DHT22;10992;48.170;8.596;2023-11-22T06:27:52;0.60;99.90
21662;DHT22;10992;48.170;8.596;2023-11-22T06:30:18;0.60;99.90
21662;DHT22;10992;48.170;8.596;2023-11-22T06:32:46;0.60;99.90
21662;DHT22;10992;48.170;8.596;2023-11-22T06:35:13;0.70;99.90
21662;DHT22;10992;48.170;8.596;2023-11-22T06:37:41;0.70;99.90
21662;DHT22;10992;48.170;8.596;2023-11-22T06:40:08;0.70;99.90
21662;DHT22;10992;48.170;8.596;2023-11-22T06:42:35;0.70;99.90
21662;DHT22;10992;48.170;8.596;2023-11-22T06:45:04;0.70;99.90
21662;DHT22;10992;48.170;8.596;2023-11-22T06:47:33;0.70;99.90
21662;DHT22;10992;48.170;8.596;2023-11-22T06:50:00;0.70;99.90
21662;DHT22;10992;48.170;8.596;2023-11-22T06:52:27;0.60;99.90
21662;DHT22;10992;48.170;8.596;2023-11-22T06:54:54;0.70;99.90
21662;DHT22;10992;48.170;8.596;2023-11-22T06:57:21;0.70;99.90
21662;DHT22;10992;48.170;8.596;2023-11-22T06:59:55;0.70;99.90
21662;DHT22;10992;48.170;8.596;2023-11-22T07:02:22;0.70;99.90
21662;DHT22;10992;48.170;8.596;2023-11-22T07:04:49;0.70;99.90
21662;DHT22;10992;48.170;8.596;2023-11-22T07:07:16;0.70;99.90
21662;DHT22;10992;48.170;8.596;2023-11-22T07:09:44;0.70;99.90
21662;DHT22;10992;48.170;8.596;2023-11-22T07:12:11;0.70;99.90
21662;DHT22;10992;48.170;8.596;2023-11-22T07:14:38;0.70;99.90
21662;DHT22;10992;48.170;8.596;2023-11-22T07:17:05;0.70;99.90
21662;DHT22;10992;48.170;8.596;2023-11-22T07:19:34;0.70;99.90
21662;DHT22;10992;48.170;8.596;2023-11-22T07:22:04;0.70;99.90
21662;DHT22;10992;48.170;8.596;2023-11-22T07:24:44;0.70;99.90
21662;DHT22;10992;48.170;8.596;2023-11-22T07:27:12;0.60;99.90
21662;DHT22;10992;48.170;8.596;2023-11-22T07:29:42;0.50;99.90
21662;DHT22;10992;48.170;8.596;2023-11-22T07:32:10;0.50;99.90
21662;DHT22;10992;48.170;8.596;2023-11-22T07:34:39;0.50;99.90
21662;DHT22;10992;48.170;8.596;2023-11-22T07:37:07;0.60;99.90
21662;DHT22;10992;48.170;8.596;2023-11-22T07:39:35;0.50;99.90
21662;DHT22;10992;48.170;8.596;2023-11-22T07:42:03;0.60;99.90
21662;DHT22;10992;48.170;8.596;2023-11-22T07:44:30;0.60;99.90
21662;DHT22;10992;48.170;8.596;2023-11-22T07:46:59;0.50;99.90
21662;DHT22;10992;48.170;8.596;2023-11-22T07:49:27;0.50;99.90
21662;DHT22;10992;48.170;8.596;2023-11-22T07:51:53;0.60;99.90
21662;DHT22;10992;48.170;8.596;2023-11-22T07:54:20;0.60;99.90
21662;DHT22;10992;48.170;8.596;2023-11-22T07:56:49;0.60;99.90
21662;DHT22;10992;48.170;8.596;2023-11-22T07:59:16;0.60;99.90
21662;DHT22;10992;48.170;8.596;2023-11-22T08:01:43;0.60;99.90
21662;DHT22;10992;48.170;8.596;2023-11-22T08:04:11;0.70;99.90
21662;DHT22;10992;48.170;8.596;2023-11-22T08:06:38;0.60;99.90
21662;DHT22;10992;48.170;8.596;2023-11-22T08:09:05;0.60;99.90
21662;DHT22;10992;48.170;8.596;2023-11-22T08:11:36;0.60;99.90
21662;DHT22;10992;48.170;8.596;2023-11-22T08:14:03;0.60;99.90
21662;DHT22;10992;48.170;8.596;2023-11-22T08:16:30;0.50;99.90
21662;DHT22;10992;48.170;8.596;2023-11-22T08:18:57;0.50;99.90
21662;DHT22;10992;48.170;8.596;2023-11-22T08:21:24;0.50;99.90
21662;DHT22;10992;48.170;8.596;2023-11-22T08:23:51;0.60;99.90
21662;DHT22;10992;48.170;8.596;2023-11-22T08:26:19;0.50;99.90
21662;DHT22;10992;48.170;8.596;2023-11-22T08:28:46;0.60;99.90
21662;DHT22;10992;48.170;8.596;2023-11-22T08:31:13;0.60;99.90
21662;DHT22;10992;48.170;8.596;2023-11-22T08:33:43;0.50;99.90
21662;DHT22;10992;48.170;8.596;2023-11-22T08:36:10;0.60;99.90
21662;DHT22;10992;48.170;8.596;2023-11-22T08:38:37;0.60;99.90
21662;DHT22;10992;48.170;8.596;2023-11-22T08:41:09;0.60;99.90
21662;DHT22;10992;48.170;8.596;2023-11-22T08:43:41;0.50;99.90
21662;DHT22;10992;48.170;8.596;2023-11-22T08:46:08;0.50;99.90
21662;DHT22;10992;48.170;8.596;2023-11-22T08:48:41;0.50;99.90
21662;DHT22;10992;48.170;8.596;2023-11-22T08:51:10;0.40;99.90
21662;DHT22;10992;48.170;8.596;2023-11-22T08:53:37;0.30;99.90
21662;DHT22;10992;48.170;8.596;2023-11-22T08:56:05;0.40;99.90
21662;DHT22;10992;48.170;8.596;2023-11-22T08:58:36;0.40;99.90
21662;DHT22;10992;48.170;8.596;2023-11-22T09:01:02;0.40;99.90
21662;DHT22;10992;48.170;8.596;2023-11-22T09:03:31;0.40;99.90
21662;DHT22;10992;48.170;8.596;2023-11-22T09:05:59;0.40;99.90
21662;DHT22;10992;48.170;8.596;2023-11-22T09:08:26;0.40;99.90
21662;DHT22;10992;48.170;8.596;2023-11-22T09:10:56;0.40;99.90
21662;DHT22;10992;48.170;8.596;2023-11-22T09:13:23;0.50;99.90
21662;DHT22;10992;48.170;8.596;2023-11-22T09:15:51;0.40;99.90
21662;DHT22;10992;48.170;8.596;2023-11-22T09:18:18;0.40;99.90
21662;DHT22;10992;48.170;8.596;2023-11-22T09:20:45;0.40;99.90
21662;DHT22;10992;48.170;8.596;2023-11-22T09:23:12;0.50;99.90
21662;DHT22;10992;48.170;8.596;2023-11-22T09:25:41;0.50;99.90
21662;DHT22;10992;48.170;8.596;2023-11-22T09:28:08;0.50;99.90
21662;DHT22;10992;48.170;8.596;2023-11-22T09:30:36;0.50;99.90
21662;DHT22;10992;48.170;8.596;2023-11-22T09:33:09;0.60;99.90
21662;DHT22;10992;48.170;8.596;2023-11-22T09:35:38;0.60;99.90
21662;DHT22;10992;48.170;8.596;2023-11-22T09:38:10;0.60;99.90
21662;DHT22;10992;48.170;8.596;2023-11-22T09:40:45;0.50;99.90
21662;DHT22;10992;48.170;8.596;2023-11-22T09:43:14;0.70;99.90
21662;DHT22;10992;48.170;8.596;2023-11-22T09:45:49;0.70;99.90
21662;DHT22;10992;48.170;8.596;2023-11-22T09:48:23;0.70;99.90
21662;DHT22;10992;48.170;8.596;2023-11-22T09:51:09;0.80;99.90
21662;DHT22;10992;48.170;8.596;2023-11-22T09:53:55;0.80;99.90
21662;DHT22;10992;48.170;8.596;2023-11-22T09:56:24;0.90;99.90
21662;DHT22;10992;48.170;8.596;2023-11-22T09:58:55;0.90;99.90
21662;DHT22;10992;48.170;8.596;2023-11-22T10:01:24;0.90;99.90
21662;DHT22;10992;48.170;8.596;2023-11-22T10:03:51;0.90;99.90
21662;DHT22;10992;48.170;8.596;2023-11-22T10:06:18;0.90;99.90
21662;DHT22;10992;48.170;8.596;2023-11-22T10:08:45;0.90;99.90
21662;DHT22;10992;48.170;8.596;2023-11-22T10:11:16;0.90;99.90
21662;DHT22;10992;48.170;8.596;2023-11-22T10:13:50;0.90;99.90
21662;DHT22;10992;48.170;8.596;2023-11-22T10:16:18;0.90;99.90
21662;DHT22;10992;48.170;8.596;2023-11-22T10:18:48;0.90;99.90
21662;DHT22;10992;48.170;8.596;2023-11-22T10:21:22;1.00;99.90
21662;DHT22;10992;48.170;8.596;2023-11-22T10:24:11;1.00;99.90
21662;DHT22;10992;48.170;8.596;2023-11-22T10:26:38;1.10;99.90
21662;DHT22;10992;48.170;8.596;2023-11-22T10:29:05;1.10;99.90
21662;DHT22;10992;48.170;8.596;2023-11-22T10:31:34;1.20;99.90
21662;DHT22;10992;48.170;8.596;2023-11-22T10:34:03;1.20;99.90
21662;DHT22;10992;48.170;8.596;2023-11-22T10:36:30;1.20;99.90
21662;DHT22;10992;48.170;8.596;2023-11-22T10:38:57;1.20;99.90
21662;DHT22;10992;48.170;8.596;2023-11-22T10:41:24;1.20;99.90
21662;DHT22;10992;48.170;8.596;2023-11-22T10:43:54;1.30;99.90
21662;DHT22;10992;48.170;8.596;2023-11-22T10:46:27;1.30;99.90
21662;DHT22;10992;48.170;8.596;2023-11-22T10:48:55;1.20;99.90
21662;DHT22;10992;48.170;8.596;2023-11-22T10:51:23;1.20;99.90
21662;DHT22;10992;48.170;8.596;2023-11-22T10:53:54;1.20;99.90
21662;DHT22;10992;48.170;8.596;2023-11-22T10:56:22;1.30;99.90
21662;DHT22;10992;48.170;8.596;2023-11-22T10:58:51;1.20;99.90
21662;DHT22;10992;48.170;8.596;2023-11-22T11:01:24;1.10;99.90
21662;DHT22;10992;48.170;8.596;2023-11-22T11:04:00;1.00;99.90
21662;DHT22;10992;48.170;8.596;2023-11-22T11:06:35;0.80;99.90
21662;DHT22;10992;48.170;8.596;2023-11-22T11:09:04;0.70;99.90
21662;DHT22;10992;48.170;8.596;2023-11-22T11:11:33;0.80;99.90
21662;DHT22;10992;48.170;8.596;2023-11-22T11:14:02;0.90;99.90
21662;DHT22;10992;48.170;8.596;2023-11-22T11:16:34;1.00;99.90
21662;DHT22;10992;48.170;8.596;2023-11-22T11:19:04;1.00;99.90
21662;DHT22;10992;48.170;8.596;2023-11-22T11:21:32;1.00;99.90
21662;DHT22;10992;48.170;8.596;2023-11-22T11:23:59;0.90;99.90
21662;DHT22;10992;48.170;8.596;2023-11-22T11:26:32;0.90;99.90
21662;DHT22;10992;48.170;8.596;2023-11-22T11:29:02;0.80;99.90
21662;DHT22;10992;48.170;8.596;2023-11-22T11:31:38;0.90;99.90
21662;DHT22;10992;48.170;8.596;2023-11-22T11:34:07;0.90;99.90
21662;DHT22;10992;48.170;8.596;2023-11-22T11:36:37;0.80;99.90
21662;DHT22;10992;48.170;8.596;2023-11-22T11:39:06;0.80;99.90
21662;DHT22;10992;48.170;8.596;2023-11-22T11:41:38;0.90;99.90
21662;DHT22;10992;48.170;8.596;2023-11-22T11:44:09;0.80;99.90
21662;DHT22;10992;48.170;8.596;2023-11-22T11:46:44;0.80;99.90
21662;DHT22;10992;48.170;8.596;2023-11-22T11:49:15;0.90;99.90
21662;DHT22;10992;48.170;8.596;2023-11-22T11:51:42;0.90;99.90
21662;DHT22;10992;48.170;8.596;2023-11-22T11:54:09;0.90;99.90
21662;DHT22;10992;48.170;8.596;2023-11-22T11:56:42;0.90;99.90
21662;DHT22;10992;48.170;8.596;2023-11-22T11:59:11;0.90;99.90
21662;DHT22;10992;48.170;8.596;2023-11-22T12:01:38;0.90;99.90
21662;DHT22;10992;48.170;8.596;2023-11-22T12:04:05;1.00;99.90
21662;DHT22;10992;48.170;8.596;2023-11-22T12:06:32;0.90;99.90
21662;DHT22;10992;48.170;8.596;2023-11-22T12:09:03;1.00;99.90
21662;DHT22;10992;48.170;8.596;2023-11-22T12:11:30;0.90;99.90
21662;DHT22;10992;48.170;8.596;2023-11-22T12:13:58;0.90;99.90
21662;DHT22;10992;48.170;8.596;2023-11-22T12:16:26;0.90;99.90
21662;DHT22;10992;48.170;8.596;2023-11-22T12:18:54;0.80;99.90
21662;DHT22;10992;48.170;8.596;2023-11-22T12:21:21;0.80;99.90
21662;DHT22;10992;48.170;8.596;2023-11-22T12:23:49;0.90;99.90
21662;DHT22;10992;48.170;8.596;2023-11-22T12:26:19;0.90;99.90
21662;DHT22;10992;48.170;8.596;2023-11-22T12:28:47;0.90;99.90
21662;DHT22;10992;48.170;8.596;2023-11-22T12:31:29;0.90;99.90
21662;DHT22;10992;48.170;8.596;2023-11-22T12:34:02;0.90;99.90
21662;DHT22;10992;48.170;8.596;2023-11-22T12:36:29;0.90;99.90
21662;DHT22;10992;48.170;8.596;2023-11-22T12:38:56;1.00;99.90
21662;DHT22;10992;48.170;8.596;2023-11-22T12:41:26;1.00;99.90
21662;DHT22;10992;48.170;8.596;2023-11-22T12:44:04;1.00;99.90
21662;DHT22;10992;48.170;8.596;2023-11-22T12:46:52;1.00;99.90
21662;DHT22;10992;48.170;8.596;2023-11-22T12:49:27;0.90;99.90
21662;DHT22;10992;48.170;8.596;2023-11-22T12:51:56;1.00;99.90
21662;DHT22;10992;48.170;8.596;2023-11-22T12:54:24;1.00;99.90
21662;DHT22;10992;48.170;8.596;2023-11-22T12:56:52;0.90;99.90
21662;DHT22;10992;48.170;8.596;2023-11-22T12:59:25;0.80;99.90
21662;DHT22;10992;48.170;8.596;2023-11-22T13:01:55;0.90;99.90
21662;DHT22;10992;48.170;8.596;2023-11-22T13:04:22;0.90;99.90
21662;DHT22;10992;48.170;8.596;2023-11-22T13:06:49;1.00;99.90
21662;DHT22;10992;48.170;8.596;2023-11-22T13:09:17;0.90;99.90
21662;DHT22;10992;48.170;8.596;2023-11-22T13:11:44;1.00;99.90
21662;DHT22;10992;48.170;8.596;2023-11-22T13:14:12;1.00;99.90
21662;DHT22;10992;48.170;8.596;2023-11-22T13:16:43;1.00;99.90
21662;DHT22;10992;48.170;8.596;2023-11-22T13:19:11;0.90;99.90
21662;DHT22;10992;48.170;8.596;2023-11-22T13:21:38;0.80;99.90
21662;DHT22;10992;48.170;8.596;2023-11-22T13:24:07;0.70;99.90
21662;DHT22;10992;48.170;8.596;2023-11-22T13:26:35;0.60;99.90
21662;DHT22;10992;48.170;8.596;2023-11-22T13:29:02;0.70;99.90
21662;DHT22;10992;48.170;8.596;2023-11-22T13:31:29;0.60;99.90
21662;DHT22;10992;48.170;8.596;2023-11-22T13:33:56;0.60;99.90
21662;DHT22;10992;48.170;8.596;2023-11-22T13:36:23;0.50;99.90
21662;DHT22;10992;48.170;8.596;2023-11-22T13:38:50;0.60;99.90
21662;DHT22;10992;48.170;8.596;2023-11-22T13:41:17;0.50;99.90
21662;DHT22;10992;48.170;8.596;2023-11-22T13:43:44;0.60;99.90
21662;DHT22;10992;48.170;8.596;2023-11-22T13:46:13;0.60;99.90
21662;DHT22;10992;48.170;8.596;2023-11-22T13:48:42;0.70;99.90
21662;DHT22;10992;48.170;8.596;2023-11-22T13:51:09;0.70;99.90
21662;DHT22;10992;48.170;8.596;2023-11-22T13:53:37;0.60;99.90
21662;DHT22;10992;48.170;8.596;2023-11-22T13:56:10;0.60;99.90
21662;DHT22;10992;48.170;8.596;2023-11-22T13:58:37;0.70;99.90
21662;DHT22;10992;48.170;8.596;2023-11-22T14:01:04;0.80;99.90
21662;DHT22;10992;48.170;8.596;2023-11-22T14:03:36;0.70;99.90
21662;DHT22;10992;48.170;8.596;2023-11-22T14:06:03;0.70;99.90
21662;DHT22;10992;48.170;8.596;2023-11-22T14:08:32;0.70;99.90
21662;DHT22;10992;48.170;8.596;2023-11-22T14:10:59;0.70;99.90
21662;DHT22;10992;48.170;8.596;2023-11-22T14:13:26;0.70;99.90
21662;DHT22;10992;48.170;8.596;2023-11-22T14:15:53;0.80;99.90
21662;DHT22;10992;48.170;8.596;2023-11-22T14:18:20;0.70;99.90
21662;DHT22;10992;48.170;8.596;2023-11-22T14:20:48;0.70;99.90
21662;DHT22;10992;48.170;8.596;2023-11-22T14:23:15;0.50;99.90
21662;DHT22;10992;48.170;8.596;2023-11-22T14:25:44;0.50;99.90
21662;DHT22;10992;48.170;8.596;2023-11-22T14:28:10;0.50;99.90
21662;DHT22;10992;48.170;8.596;2023-11-22T14:30:37;0.40;99.90
21662;DHT22;10992;48.170;8.596;2023-11-22T14:33:04;0.40;99.90
21662;DHT22;10992;48.170;8.596;2023-11-22T14:35:35;0.30;99.90
21662;DHT22;10992;48.170;8.596;2023-11-22T14:38:03;0.40;99.90
21662;DHT22;10992;48.170;8.596;2023-11-22T14:40:32;0.30;99.90
21662;DHT22;10992;48.170;8.596;2023-11-22T14:43:00;0.40;99.90
21662;DHT22;10992;48.170;8.596;2023-11-22T14:45:29;0.30;99.90
21662;DHT22;10992;48.170;8.596;2023-11-22T14:47:58;0.40;99.90
21662;DHT22;10992;48.170;8.596;2023-11-22T14:50:25;0.30;99.90
21662;DHT22;10992;48.170;8.596;2023-11-22T14:52:54;0.50;99.90
21662;DHT22;10992;48.170;8.596;2023-11-22T14:55:21;0.50;99.90
21662;DHT22;10992;48.170;8.596;2023-11-22T14:57:51;0.60;99.90
21662;DHT22;10992;48.170;8.596;2023-11-22T15:00:20;0.60;99.90
21662;DHT22;10992;48.170;8.596;2023-11-22T15:02:47;0.60;99.90
21662;DHT22;10992;48.170;8.596;2023-11-22T15:05:19;0.60;99.90
21662;DHT22;10992;48.170;8.596;2023-11-22T15:07:46;0.70;99.90
21662;DHT22;10992;48.170;8.596;2023-11-22T15:10:13;0.70;99.90
21662;DHT22;10992;48.170;8.596;2023-11-22T15:12:41;0.60;99.90
21662;DHT22;10992;48.170;8.596;2023-11-22T15:15:09;0.50;99.90
21662;DHT22;10992;48.170;8.596;2023-11-22T15:17:37;0.40;99.90
21662;DHT22;10992;48.170;8.596;2023-11-22T15:20:06;0.40;99.90
21662;DHT22;10992;48.170;8.596;2023-11-22T15:22:36;0.50;99.90
21662;DHT22;10992;48.170;8.596;2023-11-22T15:25:04;0.50;99.90
21662;DHT22;10992;48.170;8.596;2023-11-22T15:27:32;0.60;99.90
21662;DHT22;10992;48.170;8.596;2023-11-22T15:29:59;0.50;99.90
21662;DHT22;10992;48.170;8.596;2023-11-22T15:32:26;0.50;99.90
21662;DHT22;10992;48.170;8.596;2023-11-22T15:34:53;0.20;99.90
21662;DHT22;10992;48.170;8.596;2023-11-22T15:37:20;0.10;99.90
21662;DHT22;10992;48.170;8.596;2023-11-22T15:39:47;0.00;99.90
21662;DHT22;10992;48.170;8.596;2023-11-22T15:42:14;0.20;99.90
21662;DHT22;10992;48.170;8.596;2023-11-22T15:44:41;0.20;99.90
21662;DHT22;10992;48.170;8.596;2023-11-22T15:47:08;0.00;99.90
21662;DHT22;10992;48.170;8.596;2023-11-22T15:49:40;0.10;99.90
21662;DHT22;10992;48.170;8.596;2023-11-22T15:52:08;0.10;99.90